createdAt,value
2023-05-25T00:00:24.882Z,26.88
2023-05-25T00:01:24.854Z,26.88
2023-05-25T00:02:25.077Z,26.88
2023-05-25T00:03:25.054Z,26.89
2023-05-25T00:04:24.952Z,26.83
2023-05-25T00:05:24.945Z,26.85
2023-05-25T00:06:24.974Z,26.85
2023-05-25T00:07:24.951Z,26.86
2023-05-25T00:08:24.933Z,26.83
2023-05-25T00:09:24.952Z,26.83
2023-05-25T00:10:25.028Z,26.82
2023-05-25T00:11:24.959Z,26.82
2023-05-25T00:12:24.950Z,26.82
2023-05-25T00:13:24.966Z,26.83
2023-05-25T00:14:24.915Z,26.82
2023-05-25T00:15:24.911Z,26.83
2023-05-25T00:16:24.928Z,26.81
2023-05-25T00:17:25.019Z,26.83
2023-05-25T00:18:25.034Z,26.82
2023-05-25T00:19:24.927Z,26.82
2023-05-25T00:20:24.964Z,26.81
2023-05-25T00:21:24.897Z,26.82
2023-05-25T00:22:24.900Z,26.79
2023-05-25T00:23:24.884Z,26.81
2023-05-25T00:24:24.911Z,26.78
2023-05-25T00:25:24.889Z,26.77
2023-05-25T00:26:24.901Z,26.78
2023-05-25T00:27:24.910Z,26.78
2023-05-25T00:28:24.879Z,26.78
2023-05-25T00:29:24.903Z,26.78
2023-05-25T00:30:24.888Z,26.79
2023-05-25T00:31:24.909Z,26.77
2023-05-25T00:32:24.905Z,26.79
2023-05-25T00:33:24.938Z,26.81
2023-05-25T00:34:24.901Z,26.81
2023-05-25T00:35:24.948Z,26.82
2023-05-25T00:36:24.950Z,26.83
2023-05-25T00:37:24.942Z,26.81
2023-05-25T00:38:24.950Z,26.81
2023-05-25T00:39:24.912Z,26.79
2023-05-25T00:40:24.936Z,26.81
2023-05-25T00:41:25.008Z,26.78
2023-05-25T00:42:24.949Z,26.75
2023-05-25T00:43:24.935Z,26.77
2023-05-25T00:44:24.920Z,26.77
2023-05-25T00:45:24.936Z,26.74
2023-05-25T00:46:24.969Z,26.75
2023-05-25T00:47:24.913Z,26.75
2023-05-25T00:48:24.909Z,26.77
2023-05-25T00:49:24.897Z,26.75
2023-05-25T00:50:24.905Z,26.77
2023-05-25T00:51:24.894Z,26.78
2023-05-25T00:52:24.876Z,26.77
2023-05-25T00:53:24.885Z,26.77
2023-05-25T00:54:24.904Z,26.79
2023-05-25T00:55:24.926Z,26.78
2023-05-25T00:56:24.901Z,26.81
2023-05-25T00:57:24.909Z,26.77
2023-05-25T00:58:24.890Z,26.78
2023-05-25T00:59:24.916Z,26.79
2023-05-25T01:00:24.922Z,26.78
2023-05-25T01:01:24.965Z,26.77
2023-05-25T01:02:24.889Z,26.79
2023-05-25T01:03:24.927Z,26.77
2023-05-25T01:04:24.864Z,26.79
2023-05-25T01:05:24.879Z,26.79
2023-05-25T01:06:24.892Z,26.78
2023-05-25T01:07:24.879Z,26.79
2023-05-25T01:08:24.894Z,26.79
2023-05-25T01:09:24.860Z,26.78
2023-05-25T01:10:24.844Z,26.77
2023-05-25T01:11:24.891Z,26.72
2023-05-25T01:12:24.980Z,26.68
2023-05-25T01:13:24.891Z,26.67
2023-05-25T01:14:24.959Z,26.65
2023-05-25T01:15:24.929Z,26.63
2023-05-25T01:16:24.980Z,26.58
2023-05-25T01:17:24.954Z,26.58
2023-05-25T01:18:24.966Z,26.59
2023-05-25T01:19:24.975Z,26.56
2023-05-25T01:20:25.015Z,26.58
2023-05-25T01:21:25.034Z,26.58
2023-05-25T01:22:25.018Z,26.58
2023-05-25T01:23:25.018Z,26.58
2023-05-25T01:24:25.033Z,26.63
2023-05-25T01:25:25.056Z,26.59
2023-05-25T01:26:25.071Z,26.63
2023-05-25T01:27:25.071Z,26.62
2023-05-25T01:28:25.064Z,26.62
2023-05-25T01:29:25.099Z,26.59
2023-05-25T01:30:25.107Z,26.61
2023-05-25T01:31:25.132Z,26.62
2023-05-25T01:32:25.160Z,26.63
2023-05-25T01:33:25.117Z,26.62
2023-05-25T01:34:25.146Z,26.63
2023-05-25T01:35:25.126Z,26.61
2023-05-25T01:36:25.166Z,26.63
2023-05-25T01:37:25.143Z,26.62
2023-05-25T01:38:25.141Z,26.65
2023-05-25T01:39:25.124Z,26.65
2023-05-25T01:40:25.134Z,26.62
2023-05-25T01:41:25.146Z,26.63
2023-05-25T01:42:25.174Z,26.63
2023-05-25T01:43:25.165Z,26.61
2023-05-25T01:44:25.191Z,26.61
2023-05-25T01:45:25.182Z,26.58
2023-05-25T01:46:25.283Z,26.58
2023-05-25T01:47:25.270Z,26.58
2023-05-25T01:48:25.228Z,26.56
2023-05-25T01:49:25.241Z,26.59
2023-05-25T01:50:25.259Z,26.59
2023-05-25T01:51:25.258Z,26.62
2023-05-25T01:52:25.276Z,26.61
2023-05-25T01:53:25.256Z,26.63
2023-05-25T01:54:25.245Z,26.61
2023-05-25T01:55:25.280Z,26.63
2023-05-25T01:56:25.285Z,26.62
2023-05-25T01:57:25.305Z,26.61
2023-05-25T01:58:25.302Z,26.61
2023-05-25T01:59:25.327Z,26.59
2023-05-25T02:00:25.324Z,26.56
2023-05-25T02:01:25.347Z,26.58
2023-05-25T02:02:25.380Z,26.58
2023-05-25T02:03:25.376Z,26.58
2023-05-25T02:04:25.403Z,26.56
2023-05-25T02:05:25.393Z,26.54
2023-05-25T02:06:25.399Z,26.52
2023-05-25T02:07:25.423Z,26.51
2023-05-25T02:08:25.454Z,26.52
2023-05-25T02:09:25.467Z,26.52
2023-05-25T02:10:25.490Z,26.52
2023-05-25T02:11:25.522Z,26.51
2023-05-25T02:12:25.539Z,26.54
2023-05-25T02:13:25.563Z,26.51
2023-05-25T02:14:25.572Z,26.52
2023-05-25T02:15:25.592Z,26.54
2023-05-25T02:16:25.647Z,26.52
2023-05-25T02:17:25.710Z,26.55
2023-05-25T02:18:25.633Z,26.56
2023-05-25T02:19:25.620Z,26.54
2023-05-25T02:20:25.684Z,26.56
2023-05-25T02:21:25.636Z,26.58
2023-05-25T02:22:25.646Z,26.59
2023-05-25T02:23:25.634Z,26.62
2023-05-25T02:24:25.652Z,26.62
2023-05-25T02:25:25.649Z,26.63
2023-05-25T02:26:25.750Z,26.63
2023-05-25T02:27:25.664Z,26.65
2023-05-25T02:28:25.656Z,26.65
2023-05-25T02:29:25.695Z,26.65
2023-05-25T02:30:25.682Z,26.65
2023-05-25T02:31:25.720Z,26.65
2023-05-25T02:32:25.719Z,26.65
2023-05-25T02:33:25.695Z,26.68
2023-05-25T02:34:25.684Z,26.67
2023-05-25T02:35:25.686Z,26.67
2023-05-25T02:36:25.705Z,26.67
2023-05-25T02:37:25.679Z,26.67
2023-05-25T02:38:25.719Z,26.71
2023-05-25T02:39:25.692Z,26.67
2023-05-25T02:40:25.695Z,26.69
2023-05-25T02:41:25.723Z,26.71
2023-05-25T02:42:25.699Z,26.71
2023-05-25T02:43:25.695Z,26.67
2023-05-25T02:44:25.689Z,26.67
2023-05-25T02:45:25.699Z,26.67
2023-05-25T02:46:25.720Z,26.67
2023-05-25T02:47:25.726Z,26.65
2023-05-25T02:48:25.731Z,26.65
2023-05-25T02:49:25.737Z,26.65
2023-05-25T02:50:25.734Z,26.65
2023-05-25T02:51:25.742Z,26.61
2023-05-25T02:52:25.821Z,26.59
2023-05-25T02:53:25.762Z,26.62
2023-05-25T02:54:25.832Z,26.61
2023-05-25T02:55:25.757Z,26.62
2023-05-25T02:56:25.764Z,26.63
2023-05-25T02:57:25.759Z,26.62
2023-05-25T02:58:25.773Z,26.61
2023-05-25T02:59:25.797Z,26.59
2023-05-25T03:00:25.810Z,26.61
2023-05-25T03:01:26.027Z,26.61
2023-05-25T03:02:26.068Z,26.61
2023-05-25T03:03:25.838Z,26.59
2023-05-25T03:04:25.831Z,26.59
2023-05-25T03:05:25.864Z,26.59
2023-05-25T03:06:25.850Z,26.58
2023-05-25T03:07:25.840Z,26.61
2023-05-25T03:08:25.882Z,26.59
2023-05-25T03:09:25.864Z,26.59
2023-05-25T03:10:25.884Z,26.59
2023-05-25T03:11:25.909Z,26.59
2023-05-25T03:12:25.893Z,26.59
2023-05-25T03:13:25.885Z,26.62
2023-05-25T03:14:25.911Z,26.62
2023-05-25T03:15:25.915Z,26.62
2023-05-25T03:16:25.959Z,26.61
2023-05-25T03:17:25.921Z,26.61
2023-05-25T03:18:25.923Z,26.63
2023-05-25T03:19:25.890Z,26.62
2023-05-25T03:20:26.048Z,26.61
2023-05-25T03:21:25.949Z,26.63
2023-05-25T03:22:25.928Z,26.62
2023-05-25T03:23:25.925Z,26.61
2023-05-25T03:24:25.921Z,26.59
2023-05-25T03:25:25.957Z,26.59
2023-05-25T03:26:25.969Z,26.61
2023-05-25T03:27:25.960Z,26.59
2023-05-25T03:28:25.962Z,26.61
2023-05-25T03:29:25.971Z,26.61
2023-05-25T03:30:25.961Z,26.59
2023-05-25T03:31:26.021Z,26.59
2023-05-25T03:32:26.071Z,26.62
2023-05-25T03:33:26.018Z,26.59
2023-05-25T03:34:26.012Z,26.62
2023-05-25T03:35:26.004Z,26.59
2023-05-25T03:36:26.005Z,26.61
2023-05-25T03:37:26.005Z,26.63
2023-05-25T03:38:26.030Z,26.59
2023-05-25T03:39:26.020Z,26.62
2023-05-25T03:40:26.028Z,26.63
2023-05-25T03:41:26.012Z,26.65
2023-05-25T03:42:26.029Z,26.62
2023-05-25T03:43:26.050Z,26.62
2023-05-25T03:44:26.032Z,26.65
2023-05-25T03:45:26.046Z,26.65
2023-05-25T03:46:26.082Z,26.65
2023-05-25T03:47:26.094Z,26.69
2023-05-25T03:48:26.031Z,26.67
2023-05-25T03:49:26.015Z,26.65
2023-05-25T03:50:26.037Z,26.65
2023-05-25T03:51:26.030Z,26.67
2023-05-25T03:52:26.045Z,26.69
2023-05-25T03:53:26.028Z,26.68
2023-05-25T03:54:26.037Z,26.68
2023-05-25T03:55:26.021Z,26.69
2023-05-25T03:56:26.027Z,26.69
2023-05-25T03:57:26.020Z,26.69
2023-05-25T03:58:26.037Z,26.68
2023-05-25T03:59:26.005Z,26.71
2023-05-25T04:00:26.021Z,26.71
2023-05-25T04:01:26.023Z,26.68
2023-05-25T04:02:26.112Z,26.68
2023-05-25T04:03:26.134Z,26.69
2023-05-25T04:04:26.061Z,26.72
2023-05-25T04:05:26.025Z,26.71
2023-05-25T04:06:26.038Z,26.67
2023-05-25T04:07:26.025Z,26.65
2023-05-25T04:08:26.030Z,26.68
2023-05-25T04:09:26.036Z,26.68
2023-05-25T04:10:26.033Z,26.68
2023-05-25T04:11:26.060Z,26.69
2023-05-25T04:12:26.052Z,26.67
2023-05-25T04:13:26.070Z,26.67
2023-05-25T04:14:26.070Z,26.67
2023-05-25T04:15:26.069Z,26.68
2023-05-25T04:16:26.130Z,26.67
2023-05-25T04:17:26.105Z,26.65
2023-05-25T04:18:26.081Z,26.67
2023-05-25T04:19:26.101Z,26.68
2023-05-25T04:20:26.147Z,26.62
2023-05-25T04:21:26.118Z,26.67
2023-05-25T04:22:26.141Z,26.67
2023-05-25T04:23:26.125Z,26.65
2023-05-25T04:24:26.154Z,26.67
2023-05-25T04:25:28.610Z,26.63
2023-05-25T04:26:26.140Z,26.63
2023-05-25T04:27:26.135Z,26.65
2023-05-25T04:28:26.131Z,26.62
2023-05-25T04:29:26.129Z,26.63
2023-05-25T04:30:26.132Z,26.65
2023-05-25T04:31:26.160Z,26.63
2023-05-25T04:32:26.106Z,26.63
2023-05-25T04:33:26.122Z,26.65
2023-05-25T04:34:26.095Z,26.67
2023-05-25T04:35:26.120Z,26.67
2023-05-25T04:36:26.081Z,26.67
2023-05-25T04:37:26.060Z,26.65
2023-05-25T04:38:26.078Z,26.67
2023-05-25T04:39:26.064Z,26.67
2023-05-25T04:40:26.093Z,26.65
2023-05-25T04:41:26.169Z,26.65
2023-05-25T04:42:26.035Z,26.63
2023-05-25T04:43:26.109Z,26.65
2023-05-25T04:44:26.024Z,26.65
2023-05-25T04:45:26.021Z,26.65
2023-05-25T04:46:26.165Z,26.67
2023-05-25T04:47:26.129Z,26.68
2023-05-25T04:48:26.003Z,26.67
2023-05-25T04:49:26.003Z,26.68
2023-05-25T04:50:25.997Z,26.69
2023-05-25T04:51:25.967Z,26.71
2023-05-25T04:52:25.988Z,26.71
2023-05-25T04:53:25.957Z,26.68
2023-05-25T04:54:25.991Z,26.74
2023-05-25T04:55:25.938Z,26.71
2023-05-25T04:56:25.946Z,26.72
2023-05-25T04:57:25.971Z,26.72
2023-05-25T04:58:25.969Z,26.74
2023-05-25T04:59:25.929Z,26.74
2023-05-25T05:00:32.937Z,26.72
2023-05-25T05:01:26.080Z,26.72
2023-05-25T05:02:25.936Z,26.75
2023-05-25T05:03:25.948Z,26.79
2023-05-25T05:04:25.927Z,26.77
2023-05-25T05:05:25.897Z,26.77
2023-05-25T05:06:25.956Z,26.82
2023-05-25T05:07:25.895Z,26.79
2023-05-25T05:08:25.864Z,26.81
2023-05-25T05:09:25.862Z,26.81
2023-05-25T05:10:25.870Z,26.82
2023-05-25T05:11:25.858Z,26.85
2023-05-25T05:12:25.852Z,26.85
2023-05-25T05:13:25.906Z,26.85
2023-05-25T05:14:25.816Z,26.86
2023-05-25T05:15:25.857Z,26.85
2023-05-25T05:16:25.858Z,26.88
2023-05-25T05:17:25.823Z,26.89
2023-05-25T05:18:25.836Z,26.90
2023-05-25T05:19:25.789Z,26.89
2023-05-25T05:20:25.843Z,26.90
2023-05-25T05:21:25.787Z,26.92
2023-05-25T05:22:25.797Z,26.92
2023-05-25T05:23:25.781Z,26.95
2023-05-25T05:24:25.767Z,26.98
2023-05-25T05:25:25.753Z,26.90
2023-05-25T05:26:25.766Z,26.95
2023-05-25T05:27:25.754Z,26.93
2023-05-25T05:28:25.768Z,26.93
2023-05-25T05:29:25.770Z,26.96
2023-05-25T05:30:25.746Z,26.95
2023-05-25T05:31:25.743Z,26.95
2023-05-25T05:32:25.787Z,26.95
2023-05-25T05:33:25.836Z,26.95
2023-05-25T05:34:25.815Z,26.95
2023-05-25T05:35:25.800Z,26.92
2023-05-25T05:36:25.897Z,26.96
2023-05-25T05:37:25.869Z,26.92
2023-05-25T05:38:26.253Z,26.92
2023-05-25T05:39:25.904Z,26.89
2023-05-25T05:40:25.876Z,26.89
2023-05-25T05:41:25.943Z,26.88
2023-05-25T05:42:25.930Z,26.89
2023-05-25T05:43:25.937Z,26.86
2023-05-25T05:44:28.931Z,26.82
2023-05-25T05:45:32.922Z,26.85
2023-05-25T05:46:25.900Z,26.82
2023-05-25T05:47:25.949Z,26.85
2023-05-25T05:48:25.884Z,26.83
2023-05-25T05:49:25.901Z,26.89
2023-05-25T05:50:25.881Z,26.85
2023-05-25T05:51:25.907Z,26.85
2023-05-25T05:52:25.867Z,26.83
2023-05-25T05:53:26.323Z,26.79
2023-05-25T05:54:25.862Z,26.78
2023-05-25T05:55:25.875Z,26.78
2023-05-25T05:56:25.833Z,26.78
2023-05-25T05:57:25.839Z,26.77
2023-05-25T05:58:25.818Z,26.81
2023-05-25T05:59:25.855Z,26.79
2023-05-25T06:00:25.840Z,26.82
2023-05-25T06:01:25.799Z,26.81
2023-05-25T06:02:25.856Z,26.82
2023-05-25T06:03:25.872Z,26.77
2023-05-25T06:04:25.853Z,26.69
2023-05-25T06:05:25.845Z,26.71
2023-05-25T06:06:25.803Z,26.68
2023-05-25T06:07:25.790Z,26.72
2023-05-25T06:08:25.822Z,26.75
2023-05-25T06:09:25.746Z,26.71
2023-05-25T06:10:25.759Z,26.72
2023-05-25T06:11:25.811Z,26.72
2023-05-25T06:12:25.838Z,26.72
2023-05-25T06:13:25.783Z,26.75
2023-05-25T06:14:28.340Z,26.79
2023-05-25T06:15:25.774Z,26.75
2023-05-25T06:16:25.852Z,26.78
2023-05-25T06:17:25.736Z,26.77
2023-05-25T06:18:25.679Z,26.77
2023-05-25T06:19:25.689Z,26.79
2023-05-25T06:20:25.673Z,26.81
2023-05-25T06:21:25.669Z,26.82
2023-05-25T06:22:25.673Z,26.79
2023-05-25T06:23:25.957Z,26.82
2023-05-25T06:24:26.260Z,26.79
2023-05-25T06:25:25.621Z,26.81
2023-05-25T06:26:26.288Z,26.79
2023-05-25T06:27:25.630Z,26.81
2023-05-25T06:28:25.635Z,26.81
2023-05-25T06:29:25.676Z,26.78
2023-05-25T06:30:26.318Z,26.79
2023-05-25T06:31:25.651Z,26.77
2023-05-25T06:32:25.647Z,26.78
2023-05-25T06:33:25.617Z,26.78
2023-05-25T06:34:25.583Z,26.79
2023-05-25T06:35:25.548Z,26.79
2023-05-25T06:36:27.397Z,26.77
2023-05-25T06:37:25.540Z,26.77
2023-05-25T06:38:25.567Z,26.77
2023-05-25T06:39:25.558Z,26.83
2023-05-25T06:40:25.540Z,26.83
2023-05-25T06:41:25.517Z,26.89
2023-05-25T06:42:25.525Z,26.90
2023-05-25T06:43:25.537Z,26.90
2023-05-25T06:44:25.808Z,26.92
2023-05-25T06:45:25.523Z,26.95
2023-05-25T06:46:25.547Z,26.95
2023-05-25T06:47:25.507Z,26.89
2023-05-25T06:48:25.489Z,26.88
2023-05-25T06:49:25.502Z,26.92
2023-05-25T06:50:25.481Z,26.90
2023-05-25T06:51:25.481Z,26.90
2023-05-25T06:52:25.459Z,26.90
2023-05-25T06:53:25.511Z,26.90
2023-05-25T06:54:25.483Z,26.90
2023-05-25T06:55:25.451Z,26.86
2023-05-25T06:56:25.491Z,26.89
2023-05-25T06:57:25.439Z,26.92
2023-05-25T06:58:25.453Z,26.93
2023-05-25T06:59:25.851Z,26.92
2023-05-25T07:00:25.473Z,26.95
2023-05-25T07:01:25.525Z,26.98
2023-05-25T07:02:25.504Z,27.00
2023-05-25T07:03:26.321Z,27.03
2023-05-25T07:04:25.851Z,27.09
2023-05-25T07:05:25.532Z,27.12
2023-05-25T07:06:25.525Z,27.14
2023-05-25T07:07:25.534Z,27.14
2023-05-25T07:08:25.567Z,27.14
2023-05-25T07:09:25.551Z,27.14
2023-05-25T07:10:25.588Z,27.12
2023-05-25T07:11:25.570Z,27.09
2023-05-25T07:12:25.573Z,27.07
2023-05-25T07:13:25.581Z,27.00
2023-05-25T07:14:25.587Z,26.96
2023-05-25T07:15:25.617Z,26.96
2023-05-25T07:16:25.706Z,26.95
2023-05-25T07:17:25.695Z,26.93
2023-05-25T07:18:25.605Z,26.90
2023-05-25T07:19:25.610Z,26.92
2023-05-25T07:20:25.780Z,26.95
2023-05-25T07:21:25.651Z,26.99
2023-05-25T07:22:25.619Z,27.03
2023-05-25T07:23:25.656Z,27.06
2023-05-25T07:24:25.860Z,27.09
2023-05-25T07:25:25.676Z,27.16
2023-05-25T07:26:25.710Z,27.20
2023-05-25T07:27:25.712Z,27.25
2023-05-25T07:28:25.788Z,27.28
2023-05-25T07:29:26.397Z,27.33
2023-05-25T07:30:25.936Z,27.36
2023-05-25T07:31:25.994Z,27.39
2023-05-25T07:32:26.102Z,27.39
2023-05-25T07:33:26.076Z,27.39
2023-05-25T07:34:27.902Z,27.39
2023-05-25T07:35:26.237Z,27.40
2023-05-25T07:36:26.278Z,27.39
2023-05-25T07:37:26.340Z,27.40
2023-05-25T07:38:26.377Z,27.42
2023-05-25T07:39:27.358Z,27.37
2023-05-25T07:40:26.530Z,27.39
2023-05-25T07:41:26.551Z,27.37
2023-05-25T07:42:26.580Z,27.28
2023-05-25T07:43:26.646Z,27.34
2023-05-25T07:44:26.612Z,27.40
2023-05-25T07:45:26.654Z,27.43
2023-05-25T07:46:26.746Z,27.46
2023-05-25T07:47:26.853Z,27.46
2023-05-25T07:48:26.825Z,27.47
2023-05-25T07:49:26.938Z,27.51
2023-05-25T07:50:26.935Z,27.58
2023-05-25T07:51:26.986Z,27.63
2023-05-25T07:52:26.996Z,27.65
2023-05-25T07:53:27.045Z,27.70
2023-05-25T07:54:27.058Z,27.73
2023-05-25T07:55:27.055Z,27.81
2023-05-25T07:56:27.103Z,27.90
2023-05-25T07:57:27.068Z,27.91
2023-05-25T07:58:27.046Z,27.97
2023-05-25T07:59:27.060Z,28.04
2023-05-25T08:00:27.133Z,28.07
2023-05-25T08:01:27.277Z,28.11
2023-05-25T08:02:27.263Z,28.15
2023-05-25T08:03:39.879Z,28.19
2023-05-25T08:04:28.438Z,28.18
2023-05-25T08:05:27.205Z,28.22
2023-05-25T08:06:27.203Z,28.26
2023-05-25T08:07:27.179Z,28.31
2023-05-25T08:08:27.202Z,28.31
2023-05-25T08:09:27.289Z,28.35
2023-05-25T08:10:27.165Z,28.38
2023-05-25T08:11:27.164Z,28.41
2023-05-25T08:12:45.948Z,28.44
2023-05-25T08:13:28.182Z,28.45
2023-05-25T08:14:27.235Z,28.46
2023-05-25T08:15:27.187Z,28.46
2023-05-25T08:16:27.191Z,28.52
2023-05-25T08:17:27.219Z,28.52
2023-05-25T08:18:27.151Z,28.55
2023-05-25T08:19:27.173Z,28.56
2023-05-25T08:20:27.189Z,28.59
2023-05-25T08:21:27.130Z,28.60
2023-05-25T08:22:27.164Z,28.65
2023-05-25T08:23:27.183Z,28.66
2023-05-25T08:24:27.258Z,28.65
2023-05-25T08:25:27.279Z,28.67
2023-05-25T08:26:41.277Z,28.70
2023-05-25T08:27:28.301Z,28.75
2023-05-25T08:28:27.872Z,28.73
2023-05-25T08:29:27.321Z,28.75
2023-05-25T08:30:27.407Z,28.75
2023-05-25T08:31:27.364Z,28.77
2023-05-25T08:32:27.291Z,28.70
2023-05-25T08:33:27.288Z,28.75
2023-05-25T08:34:27.260Z,28.72
2023-05-25T08:35:27.282Z,28.75
2023-05-25T08:36:27.281Z,28.75
2023-05-25T08:37:27.263Z,28.73
2023-05-25T08:38:27.238Z,28.75
2023-05-25T08:39:27.259Z,28.72
2023-05-25T08:40:27.307Z,28.69
2023-05-25T08:41:27.368Z,28.69
2023-05-25T08:42:27.399Z,28.66
2023-05-25T08:43:27.450Z,28.66
2023-05-25T08:44:27.534Z,28.67
2023-05-25T08:46:28.571Z,28.65
2023-05-25T08:47:27.600Z,28.60
2023-05-25T08:48:40.029Z,28.59
2023-05-25T08:49:28.635Z,28.60
2023-05-25T08:50:27.878Z,28.58
2023-05-25T08:51:27.547Z,28.54
2023-05-25T08:52:27.522Z,28.46
2023-05-25T08:53:27.531Z,28.45
2023-05-25T08:54:27.531Z,28.45
2023-05-25T08:55:27.509Z,28.46
2023-05-25T08:56:27.509Z,28.44
2023-05-25T08:57:27.489Z,28.49
2023-05-25T08:58:27.560Z,28.49
2023-05-25T08:59:27.604Z,28.48
2023-05-25T09:00:27.655Z,28.54
2023-05-25T09:01:27.751Z,28.56
2023-05-25T09:02:27.889Z,28.62
2023-05-25T09:03:28.968Z,28.62
2023-05-25T09:04:28.022Z,28.62
2023-05-25T09:05:27.952Z,28.67
2023-05-25T09:06:27.965Z,28.70
2023-05-25T09:07:28.024Z,28.75
2023-05-25T09:08:28.071Z,28.82
2023-05-25T09:09:28.096Z,28.80
2023-05-25T09:10:28.440Z,28.85
2023-05-25T09:11:38.932Z,28.89
2023-05-25T09:12:29.184Z,28.90
2023-05-25T09:13:28.197Z,28.90
2023-05-25T09:14:28.222Z,28.96
2023-05-25T09:15:28.251Z,28.90
2023-05-25T09:16:28.438Z,29.00
2023-05-25T09:17:28.183Z,29.05
2023-05-25T09:18:28.193Z,29.06
2023-05-25T09:19:28.151Z,29.05
2023-05-25T09:20:28.288Z,29.09
2023-05-25T09:21:28.165Z,29.09
2023-05-25T09:22:28.170Z,29.14
2023-05-25T09:23:28.200Z,29.13
2023-05-25T09:24:28.128Z,29.16
2023-05-25T09:25:28.112Z,29.14
2023-05-25T09:26:28.425Z,29.16
2023-05-25T09:27:28.097Z,29.14
2023-05-25T09:28:28.119Z,29.17
2023-05-25T09:29:28.086Z,29.20
2023-05-25T09:30:28.093Z,29.26
2023-05-25T09:31:28.516Z,29.24
2023-05-25T09:32:28.191Z,29.27
2023-05-25T09:33:28.081Z,29.28
2023-05-25T09:34:28.056Z,29.26
2023-05-25T09:35:28.059Z,29.27
2023-05-25T09:36:28.202Z,29.28
2023-05-25T09:37:28.138Z,29.30
2023-05-25T09:38:28.169Z,29.36
2023-05-25T09:39:28.091Z,29.36
2023-05-25T09:40:28.056Z,29.34
2023-05-25T09:41:28.413Z,29.36
2023-05-25T09:42:28.002Z,29.37
2023-05-25T09:43:40.756Z,29.37
2023-05-25T09:44:28.996Z,29.28
2023-05-25T09:45:27.982Z,29.23
2023-05-25T09:46:28.468Z,29.14
2023-05-25T09:47:28.032Z,29.14
2023-05-25T09:48:27.982Z,29.10
2023-05-25T09:49:28.243Z,29.07
2023-05-25T09:50:27.983Z,28.99
2023-05-25T09:51:27.924Z,28.97
2023-05-25T09:52:27.956Z,28.86
2023-05-25T09:53:28.146Z,28.86
2023-05-25T09:54:28.124Z,28.83
2023-05-25T09:55:31.674Z,28.80
2023-05-25T09:56:28.935Z,28.80
2023-05-25T09:57:27.924Z,28.77
2023-05-25T09:58:27.873Z,28.77
2023-05-25T09:59:27.868Z,28.80
2023-05-25T10:00:27.896Z,28.83
2023-05-25T10:01:28.006Z,28.86
2023-05-25T10:02:27.887Z,28.89
2023-05-25T10:03:27.930Z,28.90
2023-05-25T10:04:27.880Z,28.92
2023-05-25T10:05:27.864Z,28.96
2023-05-25T10:06:30.235Z,28.96
2023-05-25T10:07:28.421Z,28.96
2023-05-25T10:08:29.053Z,28.97
2023-05-25T10:09:28.094Z,28.96
2023-05-25T10:10:28.081Z,28.97
2023-05-25T10:11:28.061Z,28.99
2023-05-25T10:12:28.408Z,28.99
2023-05-25T10:13:28.091Z,29.00
2023-05-25T10:14:29.058Z,28.97
2023-05-25T10:15:28.221Z,29.00
2023-05-25T10:16:28.253Z,28.99
2023-05-25T10:17:28.187Z,28.99
2023-05-25T10:18:28.904Z,28.97
2023-05-25T10:19:28.381Z,28.97
2023-05-25T10:20:31.596Z,28.99
2023-05-25T10:21:28.327Z,28.97
2023-05-25T10:22:28.433Z,28.96
2023-05-25T10:23:28.168Z,28.96
2023-05-25T10:24:28.144Z,28.95
2023-05-25T10:25:28.202Z,28.96
2023-05-25T10:26:28.173Z,28.99
2023-05-25T10:27:28.257Z,29.00
2023-05-25T10:28:28.165Z,29.02
2023-05-25T10:29:28.122Z,29.05
2023-05-25T10:30:28.113Z,29.02
2023-05-25T10:31:28.292Z,29.05
2023-05-25T10:32:28.514Z,29.05
2023-05-25T10:33:28.326Z,29.07
2023-05-25T10:34:28.106Z,29.09
2023-05-25T10:35:28.574Z,29.05
2023-05-25T10:36:28.087Z,29.07
2023-05-25T10:37:28.440Z,29.10
2023-05-25T10:38:28.084Z,29.14
2023-05-25T10:39:28.096Z,29.13
2023-05-25T10:40:28.112Z,29.13
2023-05-25T10:41:28.055Z,29.14
2023-05-25T10:42:28.067Z,29.16
2023-05-25T10:43:28.009Z,29.18
2023-05-25T10:44:29.911Z,29.20
2023-05-25T10:45:28.036Z,29.27
2023-05-25T10:46:28.058Z,29.33
2023-05-25T10:47:28.454Z,29.33
2023-05-25T10:48:28.012Z,29.30
2023-05-25T10:49:27.981Z,29.38
2023-05-25T10:50:27.970Z,29.38
2023-05-25T10:51:27.981Z,29.41
2023-05-25T10:52:28.416Z,29.44
2023-05-25T10:53:27.962Z,29.50
2023-05-25T10:54:27.966Z,29.48
2023-05-25T10:55:27.992Z,29.50
2023-05-25T10:56:28.154Z,29.53
2023-05-25T10:57:28.580Z,29.56
2023-05-25T10:58:28.139Z,29.61
2023-05-25T10:59:28.186Z,29.61
2023-05-25T11:00:28.478Z,29.63
2023-05-25T11:01:28.428Z,29.67
2023-05-25T11:02:28.367Z,29.68
2023-05-25T11:03:28.320Z,29.71
2023-05-25T11:04:28.453Z,29.70
2023-05-25T11:05:28.417Z,29.74
2023-05-25T11:06:28.438Z,29.70
2023-05-25T11:07:28.521Z,29.72
2023-05-25T11:08:28.564Z,29.75
2023-05-25T11:09:28.610Z,29.79
2023-05-25T11:10:28.608Z,29.84
2023-05-25T11:11:28.698Z,29.85
2023-05-25T11:12:28.697Z,29.91
2023-05-25T11:13:28.701Z,29.87
2023-05-25T11:14:28.742Z,29.91
2023-05-25T11:15:28.763Z,29.88
2023-05-25T11:16:28.884Z,29.84
2023-05-25T11:17:28.876Z,29.79
2023-05-25T11:18:28.905Z,29.77
2023-05-25T11:19:28.958Z,29.74
2023-05-25T11:20:29.081Z,29.72
2023-05-25T11:21:29.077Z,29.70
2023-05-25T11:22:29.452Z,29.67
2023-05-25T11:23:29.180Z,29.63
2023-05-25T11:24:29.532Z,29.60
2023-05-25T11:25:29.692Z,29.58
2023-05-25T11:26:29.358Z,29.56
2023-05-25T11:27:29.466Z,29.51
2023-05-25T11:28:29.920Z,29.51
2023-05-25T11:29:29.941Z,29.50
2023-05-25T11:30:30.177Z,29.48
2023-05-25T11:31:29.718Z,29.44
2023-05-25T11:32:30.067Z,29.46
2023-05-25T11:33:29.978Z,29.43
2023-05-25T11:34:29.818Z,29.44
2023-05-25T11:35:29.893Z,29.41
2023-05-25T11:36:29.936Z,29.38
2023-05-25T11:37:29.989Z,29.40
2023-05-25T11:38:30.010Z,29.37
2023-05-25T11:39:30.068Z,29.36
2023-05-25T11:40:30.060Z,29.34
2023-05-25T11:41:30.083Z,29.33
2023-05-25T11:42:30.145Z,29.33
2023-05-25T11:43:30.176Z,29.28
2023-05-25T11:44:30.186Z,29.28
2023-05-25T11:45:30.240Z,29.27
2023-05-25T11:46:30.278Z,29.24
2023-05-25T11:47:32.748Z,29.27
2023-05-25T11:48:30.219Z,29.26
2023-05-25T11:49:30.216Z,29.24
2023-05-25T11:50:30.216Z,29.21
2023-05-25T11:51:30.201Z,29.18
2023-05-25T11:52:30.238Z,29.20
2023-05-25T11:53:31.149Z,29.18
2023-05-25T11:54:30.170Z,29.18
2023-05-25T11:55:30.193Z,29.20
2023-05-25T11:56:35.663Z,29.16
2023-05-25T11:57:31.190Z,29.13
2023-05-25T11:58:30.135Z,29.14
2023-05-25T11:59:32.229Z,29.13
2023-05-25T12:00:30.290Z,29.13
2023-05-25T12:01:30.327Z,29.13
2023-05-25T12:02:30.350Z,29.11
2023-05-25T12:03:30.419Z,29.14
2023-05-25T12:04:30.403Z,29.09
2023-05-25T12:05:30.378Z,29.10
2023-05-25T12:06:30.337Z,29.07
2023-05-25T12:07:30.326Z,29.10
2023-05-25T12:08:30.338Z,29.09
2023-05-25T12:09:30.341Z,29.09
2023-05-25T12:10:30.297Z,29.07
2023-05-25T12:11:30.285Z,29.07
2023-05-25T12:12:30.322Z,29.07
2023-05-25T12:13:30.304Z,29.06
2023-05-25T12:14:30.301Z,29.06
2023-05-25T12:15:30.334Z,29.05
2023-05-25T12:16:30.301Z,29.05
2023-05-25T12:17:30.331Z,29.05
2023-05-25T12:18:30.321Z,29.03
2023-05-25T12:19:30.318Z,29.03
2023-05-25T12:20:30.373Z,29.00
2023-05-25T12:21:30.333Z,29.05
2023-05-25T12:22:30.311Z,29.00
2023-05-25T12:23:30.356Z,29.00
2023-05-25T12:24:30.318Z,29.00
2023-05-25T12:25:42.368Z,29.00
2023-05-25T12:26:31.336Z,28.97
2023-05-25T12:27:30.316Z,28.99
2023-05-25T12:28:30.317Z,28.99
2023-05-25T12:29:30.303Z,28.97
2023-05-25T12:30:30.335Z,28.96
2023-05-25T12:31:30.373Z,28.97
2023-05-25T12:32:30.326Z,28.96
2023-05-25T12:33:30.278Z,28.97
2023-05-25T12:34:30.263Z,28.97
2023-05-25T12:35:30.283Z,28.96
2023-05-25T12:36:30.267Z,28.95
2023-05-25T12:37:30.254Z,28.95
2023-05-25T12:38:30.248Z,28.95
2023-05-25T12:39:30.256Z,28.95
2023-05-25T12:40:30.210Z,28.93
2023-05-25T12:41:30.353Z,28.93
2023-05-25T12:42:30.227Z,28.93
2023-05-25T12:43:30.199Z,28.93
2023-05-25T12:44:30.216Z,28.92
2023-05-25T12:45:30.183Z,28.93
2023-05-25T12:46:30.224Z,28.92
2023-05-25T12:47:30.244Z,28.92
2023-05-25T12:48:30.183Z,28.90
2023-05-25T12:49:30.143Z,28.92
2023-05-25T12:50:30.235Z,28.90
2023-05-25T12:51:30.163Z,28.89
2023-05-25T12:52:30.136Z,28.87
2023-05-25T12:53:30.138Z,28.89